sensor_id;sensor_type;location;lat;lon;timestamp;temperature;humidity
43414;DHT22;73638;49.676;8.606;2024-02-04T00:03:06;11.1597;70.8308
43414;DHT22;73638;49.676;8.606;2024-02-04T00:08:13;11.0128;71.0643
43414;DHT22;73638;49.676;8.606;2024-02-04T00:13:20;10.9995;71.8883
43414;DHT22;73638;49.676;8.606;2024-02-04T00:18:27;11.125;72.1462
43414;DHT22;73638;49.676;8.606;2024-02-04T00:23:33;11.2291;72.3796
43414;DHT22;73638;49.676;8.606;2024-02-04T00:28:40;11.3413;72.0607
43414;DHT22;73638;49.676;8.606;2024-02-04T00:33:47;11.2852;72.282
43414;DHT22;73638;49.676;8.606;2024-02-04T00:38:54;11.3546;72.3064
43414;DHT22;73638;49.676;8.606;2024-02-04T00:44:01;11.3413;72.2332
43414;DHT22;73638;49.676;8.606;2024-02-04T00:49:08;11.4107;72.2698
43414;DHT22;73638;49.676;8.606;2024-02-04T00:54:19;11.2638;71.7037
43414;DHT22;73638;49.676;8.606;2024-02-04T00:59:20;11.1036;71.2978
43414;DHT22;73638;49.676;8.606;2024-02-04T01:04:27;10.93;72.2042
43414;DHT22;73638;49.676;8.606;2024-02-04T01:09:34;11.0475;72.5765
43414;DHT22;73638;49.676;8.606;2024-02-04T01:14:41;11.125;72.4407
43414;DHT22;73638;49.676;8.606;2024-02-04T01:19:48;11.2158;72.4041
43414;DHT22;73638;49.676;8.606;2024-02-04T01:24:55;11.2211;72.5399
43414;DHT22;73638;49.676;8.606;2024-02-04T01:30:02;11.2558;72.4041
43414;DHT22;73638;49.676;8.606;2024-02-04T01:35:08;11.2158;72.5887
43414;DHT22;73638;49.676;8.606;2024-02-04T01:40:15;11.2425;72.6009
43414;DHT22;73638;49.676;8.606;2024-02-04T01:45:22;11.0689;71.8761
43414;DHT22;73638;49.676;8.606;2024-02-04T01:50:28;10.8312;71.9829
43414;DHT22;73638;49.676;8.606;2024-02-04T01:55:35;10.7111;72.1309
43414;DHT22;73638;49.676;8.606;2024-02-04T02:00:42;10.6016;72.781
43414;DHT22;73638;49.676;8.606;2024-02-04T02:05:49;10.6844;73.7026
43414;DHT22;73638;49.676;8.606;2024-02-04T02:11:03;10.7324;74.1329
43414;DHT22;73638;49.676;8.606;2024-02-04T02:16:07;10.8179;74.2565
43414;DHT22;73638;49.676;8.606;2024-02-04T02:21:18;10.8019;74.3297
43414;DHT22;73638;49.676;8.606;2024-02-04T02:26:16;10.8526;74.6609
43414;DHT22;73638;49.676;8.606;2024-02-04T02:31:36;10.7191;75.0179
43414;DHT22;73638;49.676;8.606;2024-02-04T02:36:33;10.914;74.7356
43414;DHT22;73638;49.676;8.606;2024-02-04T02:41:37;10.9701;74.58
43414;DHT22;73638;49.676;8.606;2024-02-04T02:46:42;11.0395;74.5541
43414;DHT22;73638;49.676;8.606;2024-02-04T02:51:49;10.7671;74.023
43414;DHT22;73638;49.676;8.606;2024-02-04T02:56:56;10.5589;74.0597
43414;DHT22;73638;49.676;8.606;2024-02-04T03:02:03;10.4948;74.6487
43414;DHT22;73638;49.676;8.606;2024-02-04T03:07:09;10.5722;75.1034
43414;DHT22;73638;49.676;8.606;2024-02-04T03:12:16;10.6149;75.227
43414;DHT22;73638;49.676;8.606;2024-02-04T03:17:28;10.663;75.3368
43414;DHT22;73638;49.676;8.606;2024-02-04T03:22:29;10.6844;75.5215
43414;DHT22;73638;49.676;8.606;2024-02-04T03:27:36;10.7111;75.4849
43414;DHT22;73638;49.676;8.606;2024-02-04T03:32:43;10.6844;75.816
43414;DHT22;73638;49.676;8.606;2024-02-04T03:37:50;10.7752;75.6695
43414;DHT22;73638;49.676;8.606;2024-02-04T03:42:57;10.6977;75.7305
43414;DHT22;73638;49.676;8.606;2024-02-04T03:48:04;10.6764;75.8907
43414;DHT22;73638;49.676;8.606;2024-02-04T03:53:10;10.7485;75.4971
43414;DHT22;73638;49.676;8.606;2024-02-04T03:58:19;10.3906;74.7356
43414;DHT22;73638;49.676;8.606;2024-02-04T04:03:24;10.2918;74.9569
43414;DHT22;73638;49.676;8.606;2024-02-04T04:08:31;10.2438;74.8211
43414;DHT22;73638;49.676;8.606;2024-02-04T04:13:38;10.1957;75.0057
43414;DHT22;73638;49.676;8.606;2024-02-04T04:18:44;10.1476;74.9569
43414;DHT22;73638;49.676;8.606;2024-02-04T04:23:51;10.0355;74.7356
43414;DHT22;73638;49.676;8.606;2024-02-04T04:28:58;10.0061;74.8577
43414;DHT22;73638;49.676;8.606;2024-02-04T04:34:05;9.902;74.76
43414;DHT22;73638;49.676;8.606;2024-02-04T04:39:11;9.8112;74.8455
43414;DHT22;73638;49.676;8.606;2024-02-04T04:44:18;9.91;75.3872
43414;DHT22;73638;49.676;8.606;2024-02-04T04:49:25;10.0702;75.9762
43414;DHT22;73638;49.676;8.606;2024-02-04T04:54:31;10.2785;76.0494
43414;DHT22;73638;49.676;8.606;2024-02-04T04:59:39;10.3906;76.3699
43414;DHT22;73638;49.676;8.606;2024-02-04T05:04:45;10.4814;76.1608
43414;DHT22;73638;49.676;8.606;2024-02-04T05:09:52;10.4894;76.1608
43414;DHT22;73638;49.676;8.606;2024-02-04T05:14:59;10.5802;76.5255
43414;DHT22;73638;49.676;8.606;2024-02-04T05:20:07;10.6203;76.2219
43414;DHT22;73638;49.676;8.606;2024-02-04T05:25:12;10.7485;76.405
43414;DHT22;73638;49.676;8.606;2024-02-04T05:30:19;10.8579;76.4233
43414;DHT22;73638;49.676;8.606;2024-02-04T05:35:26;10.9487;75.7839
43414;DHT22;73638;49.676;8.606;2024-02-04T05:40:33;11.0395;75.5383
43414;DHT22;73638;49.676;8.606;2024-02-04T05:45:40;11.0262;75.4635
43414;DHT22;73638;49.676;8.606;2024-02-04T05:50:47;11.1383;75.3658
43414;DHT22;73638;49.676;8.606;2024-02-04T05:55:54;11.1303;75.2682
43414;DHT22;73638;49.676;8.606;2024-02-04T06:01:02;11.1303;74.9355
43414;DHT22;73638;49.676;8.606;2024-02-04T06:06:07;11.1383;74.9111
43414;DHT22;73638;49.676;8.606;2024-02-04T06:11:14;11.1116;74.7509
43414;DHT22;73638;49.676;8.606;2024-02-04T06:16:21;11.0395;74.641
43414;DHT22;73638;49.676;8.606;2024-02-04T06:21:27;11.0609;74.5418
43414;DHT22;73638;49.676;8.606;2024-02-04T06:26:37;11.0342;74.7021
43414;DHT22;73638;49.676;8.606;2024-02-04T06:31:44;11.0903;74.9844
43414;DHT22;73638;49.676;8.606;2024-02-04T06:36:48;11.1463;74.5052
43414;DHT22;73638;49.676;8.606;2024-02-04T06:41:54;11.117;74.4076
43414;DHT22;73638;49.676;8.606;2024-02-04T06:47:01;11.1463;74.3343
43414;DHT22;73638;49.676;8.606;2024-02-04T06:52:08;11.1864;74.0139
43414;DHT22;73638;49.676;8.606;2024-02-04T06:57:14;11.1383;73.8796
43414;DHT22;73638;49.676;8.606;2024-02-04T07:02:21;11.173;73.904
43414;DHT22;73638;49.676;8.606;2024-02-04T07:07:28;11.1944;73.695
43414;DHT22;73638;49.676;8.606;2024-02-04T07:12:35;11.1116;73.4371
43414;DHT22;73638;49.676;8.606;2024-02-04T07:17:42;11.2852;73.1289
43414;DHT22;73638;49.676;8.606;2024-02-04T07:22:48;11.3066;73.228
43414;DHT22;73638;49.676;8.606;2024-02-04T07:22:51;11.3066;73.228
43414;DHT22;73638;49.676;8.606;2024-02-04T07:27:57;11.2985;72.9335
43414;DHT22;73638;49.676;8.606;2024-02-04T07:33:04;11.376;72.9702
43414;DHT22;73638;49.676;8.606;2024-02-04T07:38:10;11.2638;72.5032
43414;DHT22;73638;49.676;8.606;2024-02-04T07:43:17;11.117;72.4788
43414;DHT22;73638;49.676;8.606;2024-02-04T07:48:24;10.9781;72.3552
43414;DHT22;73638;49.676;8.606;2024-02-04T07:53:31;10.9995;73.1533
43414;DHT22;73638;49.676;8.606;2024-02-04T07:58:38;10.9781;73.817
43414;DHT22;73638;49.676;8.606;2024-02-04T08:03:45;11.0956;73.9529
43414;DHT22;73638;49.676;8.606;2024-02-04T08:08:52;11.1303;73.9284
43414;DHT22;73638;49.676;8.606;2024-02-04T08:13:58;11.2291;73.7438
43414;DHT22;73638;49.676;8.606;2024-02-04T08:19:06;11.3279;73.547
43414;DHT22;73638;49.676;8.606;2024-02-04T08:24:12;11.2638;73.3013
43414;DHT22;73638;49.676;8.606;2024-02-04T08:29:19;11.0903;72.5277
43414;DHT22;73638;49.676;8.606;2024-02-04T08:34:25;10.8927;72.9168
43414;DHT22;73638;49.676;8.606;2024-02-04T08:39:32;10.9007;72.7687
43414;DHT22;73638;49.676;8.606;2024-02-04T08:44:40;10.671;72.6711
43414;DHT22;73638;49.676;8.606;2024-02-04T08:49:46;10.7485;73.286
43414;DHT22;73638;49.676;8.606;2024-02-04T08:54:52;10.7404;73.2357
43414;DHT22;73638;49.676;8.606;2024-02-04T08:59:59;10.914;73.2113
43414;DHT22;73638;49.676;8.606;2024-02-04T09:05:06;10.9087;72.9412
43414;DHT22;73638;49.676;8.606;2024-02-04T09:10:13;11.0956;73.5592
43414;DHT22;73638;49.676;8.606;2024-02-04T09:15:19;11.2024;73.6584
43414;DHT22;73638;49.676;8.606;2024-02-04T09:20:26;11.6136;73.7194
43414;DHT22;73638;49.676;8.606;2024-02-04T09:25:33;11.7098;73.3379
43414;DHT22;73638;49.676;8.606;2024-02-04T09:30:40;11.9341;72.6375
43414;DHT22;73638;49.676;8.606;2024-02-04T09:35:49;11.9902;71.7906
43414;DHT22;73638;49.676;8.606;2024-02-04T09:40:56;12.2198;71.1635
43414;DHT22;73638;49.676;8.606;2024-02-04T09:46:03;12.2972;70.9178
43414;DHT22;73638;49.676;8.606;2024-02-04T09:51:10;12.5269;70.4677
43414;DHT22;73638;49.676;8.606;2024-02-04T09:56:22;12.5483;70.161
43414;DHT22;73638;49.676;8.606;2024-02-04T10:01:24;12.5483;69.7185
43414;DHT22;73638;49.676;8.606;2024-02-04T10:06:30;12.7298;69.6574
43414;DHT22;73638;49.676;8.606;2024-02-04T10:11:37;12.8981;69.633
43414;DHT22;73638;49.676;8.606;2024-02-04T10:16:46;12.9274;68.7724
43414;DHT22;73638;49.676;8.606;2024-02-04T10:22:00;13.1437;68.0598
43414;DHT22;73638;49.676;8.606;2024-02-04T10:27:00;13.2906;67.7287
43414;DHT22;73638;49.676;8.606;2024-02-04T10:32:06;13.3814;67.6661
43414;DHT22;73638;49.676;8.606;2024-02-04T10:37:13;13.4295;67.483
43414;DHT22;73638;49.676;8.606;2024-02-04T10:42:24;13.4428;66.9047
43414;DHT22;73638;49.676;8.606;2024-02-04T10:47:30;13.3654;66.8315
43414;DHT22;73638;49.676;8.606;2024-02-04T10:52:36;13.3387;67.1626
43414;DHT22;73638;49.676;8.606;2024-02-04T10:57:41;13.2692;67.274
43414;DHT22;73638;49.676;8.606;2024-02-04T11:02:49;13.1918;67.2236
43414;DHT22;73638;49.676;8.606;2024-02-04T11:07:54;13.093;67.924
43414;DHT22;73638;49.676;8.606;2024-02-04T11:13:02;13.0583;68.5878
43414;DHT22;73638;49.676;8.606;2024-02-04T11:18:33;13.0529;68.7846
43414;DHT22;73638;49.676;8.606;2024-02-04T11:23:26;12.9969;68.6244
43414;DHT22;73638;49.676;8.606;2024-02-04T11:28:22;12.9194;68.2811
43414;DHT22;73638;49.676;8.606;2024-02-04T11:33:28;12.9969;68.6366
43414;DHT22;73638;49.676;8.606;2024-02-04T11:38:36;12.9541;68.5267
43414;DHT22;73638;49.676;8.606;2024-02-04T11:43:45;12.9755;68.4413
43414;DHT22;73638;49.676;8.606;2024-02-04T11:48:53;12.9061;68.3299
43414;DHT22;73638;49.676;8.606;2024-02-04T11:53:56;12.9809;68.7236
43414;DHT22;73638;49.676;8.606;2024-02-04T11:59:03;13.1571;68.4657
43414;DHT22;73638;49.676;8.606;2024-02-04T12:04:11;13.101;68.4413
43414;DHT22;73638;49.676;8.606;2024-02-04T12:09:17;13.0369;68.2322
43414;DHT22;73638;49.676;8.606;2024-02-04T12:14:24;13.0877;68.3543
43414;DHT22;73638;49.676;8.606;2024-02-04T12:19:30;13.0022;68.3055
43414;DHT22;73638;49.676;8.606;2024-02-04T12:24:42;12.8153;68.5756
43414;DHT22;73638;49.676;8.606;2024-02-04T12:29:44;12.7085;68.8457
43414;DHT22;73638;49.676;8.606;2024-02-04T12:34:51;12.6043;69.4118
43414;DHT22;73638;49.676;8.606;2024-02-04T12:39:57;12.6551;69.3248
43414;DHT22;73638;49.676;8.606;2024-02-04T12:45:05;12.7859;69.2149
43414;DHT22;73638;49.676;8.606;2024-02-04T12:50:11;12.8206;69.2149
43414;DHT22;73638;49.676;8.606;2024-02-04T12:55:20;12.8073;69.1035
43414;DHT22;73638;49.676;8.606;2024-02-04T13:00:24;12.7859;69.1173
43414;DHT22;73638;49.676;8.606;2024-02-04T13:05:34;12.9622;69.1661
43414;DHT22;73638;49.676;8.606;2024-02-04T13:10:40;13.0877;69.0547
43414;DHT22;73638;49.676;8.606;2024-02-04T13:15:47;12.9969;68.957
43414;DHT22;73638;49.676;8.606;2024-02-04T13:20:53;12.9675;68.9693
43414;DHT22;73638;49.676;8.606;2024-02-04T13:26:01;13.0797;69.0059
43414;DHT22;73638;49.676;8.606;2024-02-04T13:31:08;13.1357;68.9815
43414;DHT22;73638;49.676;8.606;2024-02-04T13:36:14;13.2345;68.9204
43414;DHT22;73638;49.676;8.606;2024-02-04T13:41:21;13.3307;68.5267
43414;DHT22;73638;49.676;8.606;2024-02-04T13:46:28;13.2612;68.748
43414;DHT22;73638;49.676;8.606;2024-02-04T13:51:45;13.4001;68.8212
43414;DHT22;73638;49.676;8.606;2024-02-04T13:56:42;13.2826;68.7968
43414;DHT22;73638;49.676;8.606;2024-02-04T14:01:49;13.2185;68.8335
43414;DHT22;73638;49.676;8.606;2024-02-04T14:06:56;13.1491;69.0303
43414;DHT22;73638;49.676;8.606;2024-02-04T14:12:03;13.1918;69.1905
43414;DHT22;73638;49.676;8.606;2024-02-04T14:17:09;13.2692;69.3004
43414;DHT22;73638;49.676;8.606;2024-02-04T14:22:16;13.2132;69.4118
43414;DHT22;73638;49.676;8.606;2024-02-04T14:27:24;13.2826;69.2637
43414;DHT22;73638;49.676;8.606;2024-02-04T14:32:30;13.3253;69.0547
43414;DHT22;73638;49.676;8.606;2024-02-04T14:37:37;13.36;69.1539
43414;DHT22;73638;49.676;8.606;2024-02-04T14:42:44;13.2185;69.2882
43414;DHT22;73638;49.676;8.606;2024-02-04T14:47:51;13.1571;69.2515
43414;DHT22;73638;49.676;8.606;2024-02-04T14:52:57;13.1144;69.3248
43414;DHT22;73638;49.676;8.606;2024-02-04T14:58:04;13.0316;69.8421
43414;DHT22;73638;49.676;8.606;2024-02-04T15:03:11;12.9675;69.8787
43414;DHT22;73638;49.676;8.606;2024-02-04T15:08:18;12.9675;70.2709
43414;DHT22;73638;49.676;8.606;2024-02-04T15:13:25;13.0022;70.1854
43414;DHT22;73638;49.676;8.606;2024-02-04T15:18:32;12.9194;70.1122
43414;DHT22;73638;49.676;8.606;2024-02-04T15:23:39;13.0663;70.2342
43414;DHT22;73638;49.676;8.606;2024-02-04T15:28:45;12.9675;70.1488
43414;DHT22;73638;49.676;8.606;2024-02-04T15:33:52;13.0316;70.0008
43414;DHT22;73638;49.676;8.606;2024-02-04T15:38:59;13.0182;70.2709
43414;DHT22;73638;49.676;8.606;2024-02-04T15:44:06;13.0743;69.9397
43414;DHT22;73638;49.676;8.606;2024-02-04T15:49:14;12.9061;70.0633
43414;DHT22;73638;49.676;8.606;2024-02-04T15:54:20;12.7646;70.2464
43414;DHT22;73638;49.676;8.606;2024-02-04T15:59:27;12.7993;70.4799
43414;DHT22;73638;49.676;8.606;2024-02-04T16:04:34;12.6818;70.6279
43414;DHT22;73638;49.676;8.606;2024-02-04T16:09:41;12.7993;70.3578
43414;DHT22;73638;49.676;8.606;2024-02-04T16:14:48;12.8153;70.5303
43414;DHT22;73638;49.676;8.606;2024-02-04T16:19:55;12.8847;70.5669
43414;DHT22;73638;49.676;8.606;2024-02-04T16:25:01;12.7993;70.5547
43414;DHT22;73638;49.676;8.606;2024-02-04T16:30:26;12.7859;70.5669
43414;DHT22;73638;49.676;8.606;2024-02-04T16:35:14;12.6818;70.7256
43414;DHT22;73638;49.676;8.606;2024-02-04T16:40:21;12.7512;70.8125
43414;DHT22;73638;49.676;8.606;2024-02-04T16:45:28;12.6257;70.4921
43414;DHT22;73638;49.676;8.606;2024-02-04T16:50:35;12.4441;70.7378
43414;DHT22;73638;49.676;8.606;2024-02-04T16:55:42;12.5696;71.1315
43414;DHT22;73638;49.676;8.606;2024-02-04T17:00:49;12.591;71.0704
43414;DHT22;73638;49.676;8.606;2024-02-04T17:05:58;12.6551;71.0948
43414;DHT22;73638;49.676;8.606;2024-02-04T17:11:03;12.583;71.0338
43414;DHT22;73638;49.676;8.606;2024-02-04T17:16:22;12.6684;71.0216
43414;DHT22;73638;49.676;8.606;2024-02-04T17:21:19;12.6257;70.4677
43414;DHT22;73638;49.676;8.606;2024-02-04T17:26:27;12.4868;70.6401
43414;DHT22;73638;49.676;8.606;2024-02-04T17:31:30;12.5002;71.0338
43414;DHT22;73638;49.676;8.606;2024-02-04T17:36:36;12.5269;71.0094
43414;DHT22;73638;49.676;8.606;2024-02-04T17:41:43;12.4788;70.9102
43414;DHT22;73638;49.676;8.606;2024-02-04T17:46:50;12.3106;71.0826
43414;DHT22;73638;49.676;8.606;2024-02-04T17:51:57;12.5002;71.107
43414;DHT22;73638;49.676;8.606;2024-02-04T17:57:04;12.5349;71.0582
43414;DHT22;73638;49.676;8.606;2024-02-04T18:02:11;12.6043;70.8614
43414;DHT22;73638;49.676;8.606;2024-02-04T18:07:18;12.5563;70.4555
43414;DHT22;73638;49.676;8.606;2024-02-04T18:12:29;12.5216;70.7011
43414;DHT22;73638;49.676;8.606;2024-02-04T18:17:33;12.5776;70.7256
43414;DHT22;73638;49.676;8.606;2024-02-04T18:22:38;12.5776;70.5791
43414;DHT22;73638;49.676;8.606;2024-02-04T18:27:45;12.5776;70.5303
43414;DHT22;73638;49.676;8.606;2024-02-04T18:32:51;12.5135;70.1732
43414;DHT22;73638;49.676;8.606;2024-02-04T18:37:58;12.4308;70.6035
43414;DHT22;73638;49.676;8.606;2024-02-04T18:43:05;12.4441;70.8247
43414;DHT22;73638;49.676;8.606;2024-02-04T18:48:12;12.4228;70.6889
43414;DHT22;73638;49.676;8.606;2024-02-04T18:53:19;12.5269;70.5425
43414;DHT22;73638;49.676;8.606;2024-02-04T18:58:26;12.5002;70.6767
43414;DHT22;73638;49.676;8.606;2024-02-04T19:03:33;12.4575;70.4189
43414;DHT22;73638;49.676;8.606;2024-02-04T19:08:42;12.5429;70.3944
43414;DHT22;73638;49.676;8.606;2024-02-04T19:13:46;12.5643;70.0877
43414;DHT22;73638;49.676;8.606;2024-02-04T19:18:54;12.5776;70.1854
43414;DHT22;73638;49.676;8.606;2024-02-04T19:23:59;12.4922;69.7673
43414;DHT22;73638;49.676;8.606;2024-02-04T19:29:05;12.3533;69.7795
43414;DHT22;73638;49.676;8.606;2024-02-04T19:29:08;12.3533;69.7795
43414;DHT22;73638;49.676;8.606;2024-02-04T19:34:14;12.4094;70.013
43414;DHT22;73638;49.676;8.606;2024-02-04T19:39:21;12.388;70.2846
43414;DHT22;73638;49.676;8.606;2024-02-04T19:44:28;12.4361;70.3212
43414;DHT22;73638;49.676;8.606;2024-02-04T19:49:35;12.388;70.1366
43414;DHT22;73638;49.676;8.606;2024-02-04T19:54:42;12.3613;69.8177
43414;DHT22;73638;49.676;8.606;2024-02-04T19:59:49;12.396;70.1366
43414;DHT22;73638;49.676;8.606;2024-02-04T20:04:56;12.388;69.8543
43414;DHT22;73638;49.676;8.606;2024-02-04T20:10:03;12.4308;69.7551
43414;DHT22;73638;49.676;8.606;2024-02-04T20:15:09;12.34;69.4362
43414;DHT22;73638;49.676;8.606;2024-02-04T20:20:16;12.2412;70.106
43414;DHT22;73638;49.676;8.606;2024-02-04T20:25:23;12.3186;69.6452
43414;DHT22;73638;49.676;8.606;2024-02-04T20:30:30;12.2198;70.1564
43414;DHT22;73638;49.676;8.606;2024-02-04T20:35:36;12.332;69.5964
43414;DHT22;73638;49.676;8.606;2024-02-04T20:40:43;12.2919;69.8726
43414;DHT22;73638;49.676;8.606;2024-02-04T20:45:49;12.2919;69.9352
43414;DHT22;73638;49.676;8.606;2024-02-04T20:50:56;12.1931;69.8116
43414;DHT22;73638;49.676;8.606;2024-02-04T20:56:04;12.34;69.5216
43414;DHT22;73638;49.676;8.606;2024-02-04T21:01:10;12.3266;69.5705
43414;DHT22;73638;49.676;8.606;2024-02-04T21:06:17;12.2198;69.6773
43414;DHT22;73638;49.676;8.606;2024-02-04T21:11:26;12.1931;69.897
43414;DHT22;73638;49.676;8.606;2024-02-04T21:16:30;12.0943;70.1442
43414;DHT22;73638;49.676;8.606;2024-02-04T21:21:36;12.1504;70.1183
43414;DHT22;73638;49.676;8.606;2024-02-04T21:26:43;12.2065;70.1686
43414;DHT22;73638;49.676;8.606;2024-02-04T21:31:50;12.1797;69.9962
43414;DHT22;73638;49.676;8.606;2024-02-04T21:36:57;12.1637;69.9229
43414;DHT22;73638;49.676;8.606;2024-02-04T21:42:04;12.2358;69.8726
43414;DHT22;73638;49.676;8.606;2024-02-04T21:47:11;12.2839;70.0206
43414;DHT22;73638;49.676;8.606;2024-02-04T21:52:18;12.2358;69.897
43414;DHT22;73638;49.676;8.606;2024-02-04T21:57:24;12.2011;69.7749
43414;DHT22;73638;49.676;8.606;2024-02-04T22:02:31;11.9421;70.2785
43414;DHT22;73638;49.676;8.606;2024-02-04T22:07:38;11.9341;70.6355
43414;DHT22;73638;49.676;8.606;2024-02-04T22:12:44;11.8433;70.782
43414;DHT22;73638;49.676;8.606;2024-02-04T22:17:51;11.9341;70.9056
43414;DHT22;73638;49.676;8.606;2024-02-04T22:22:58;11.9074;70.5486
43414;DHT22;73638;49.676;8.606;2024-02-04T22:28:05;11.9421;70.8446
43414;DHT22;73638;49.676;8.606;2024-02-04T22:33:12;11.9341;70.6355
43414;DHT22;73638;49.676;8.606;2024-02-04T22:38:18;11.9821;70.721
43414;DHT22;73638;49.676;8.606;2024-02-04T22:43:25;11.9768;70.7332
43414;DHT22;73638;49.676;8.606;2024-02-04T22:48:32;11.8647;70.7942
43414;DHT22;73638;49.676;8.606;2024-02-04T22:53:39;11.619;70.9178
43414;DHT22;73638;49.676;8.606;2024-02-04T22:58:45;11.5362;71.0643
43414;DHT22;73638;49.676;8.606;2024-02-04T23:03:52;11.5015;71.3115
43414;DHT22;73638;49.676;8.606;2024-02-04T23:08:59;11.3973;71.4336
43414;DHT22;73638;49.676;8.606;2024-02-04T23:14:05;11.5282;71.3848
43414;DHT22;73638;49.676;8.606;2024-02-04T23:19:12;11.4935;71.2978
43414;DHT22;73638;49.676;8.606;2024-02-04T23:24:19;11.4588;71.1635
43414;DHT22;73638;49.676;8.606;2024-02-04T23:29:25;11.5015;71.2367
43414;DHT22;73638;49.676;8.606;2024-02-04T23:34:32;11.5229;71.0521
43414;DHT22;73638;49.676;8.606;2024-02-04T23:39:39;11.5229;71.0155
43414;DHT22;73638;49.676;8.606;2024-02-04T23:44:46;11.4748;70.7088
43414;DHT22;73638;49.676;8.606;2024-02-04T23:49:53;11.4935;70.6966
43414;DHT22;73638;49.676;8.606;2024-02-04T23:55:00;11.5015;70.5608
